Time;durP1;ratioP1;P1;durP2;ratioP2;P2;SDS_P1;SDS_P2;PMS_P1;PMS_P2;Temp;Humidity;BMP_temperature;BMP_pressure;BME280_temperature;BME280_humidity;BME280_pressure;Samples;Min_cycle;Max_cycle;Signal;HPM_P1;HPM_P2
2022/12/10 00:01:15;;;;;;;29.20;17.90;;;;;;;15.77;100.00;-18194.50;5093304;28;20611;-66
2022/12/10 00:03:43;;;;;;;36.67;18.07;;;;;;;15.63;100.00;-14986.19;5093377;28;20560;-65
2022/12/10 00:06:12;;;;;;;40.33;18.60;;;;;;;15.56;100.00;-13381.31;5093388;28;20188;-65
2022/12/10 00:08:41;;;;;;;30.97;19.13;;;;;;;15.53;100.00;-12097.63;5093818;28;20661;-65
2022/12/10 00:11:10;;;;;;;31.83;19.27;;;;;;;15.46;100.00;-11454.94;5094398;28;20184;-66
2022/12/10 00:13:38;;;;;;;40.00;20.00;;;;;;;15.39;100.00;-9207.03;5094049;28;20194;-65
2022/12/10 00:16:07;;;;;;;36.90;18.93;;;;;;;15.18;100.00;-10167.91;5094673;28;20258;-65
2022/12/10 00:18:35;;;;;;;29.50;18.20;;;;;;;15.15;100.00;-10809.22;5093693;28;20184;-65
2022/12/10 00:21:04;;;;;;;29.93;17.20;;;;;;;15.12;100.00;-12091.88;5094680;28;20574;-65
2022/12/10 00:23:32;;;;;;;40.50;18.47;;;;;;;15.24;100.00;-17541.44;5093647;28;20238;-66
2022/12/10 00:26:04;;;;;;;35.07;18.10;;;;;;;15.31;100.00;-18183.44;5093277;28;20297;-65
2022/12/10 00:28:32;;;;;;;31.60;18.70;;;;;;;15.23;100.00;-18183.41;5093646;28;20589;-65
2022/12/10 00:31:04;;;;;;;34.40;18.53;;;;;;;15.38;100.00;-18187.00;5092389;28;20233;-66
2022/12/10 00:33:31;;;;;;;35.70;19.17;;;;;;;15.09;100.00;-18180.16;5092638;28;20184;-66
2022/12/10 00:36:02;;;;;;;45.00;21.07;;;;;;;15.11;100.00;-18180.53;5092357;28;20219;-66
2022/12/10 00:38:29;;;;;;;36.47;21.00;;;;;;;15.02;100.00;-18178.59;5092345;28;20191;-66
2022/12/10 00:40:56;;;;;;;43.57;24.37;;;;;;;15.04;100.00;-18179.09;5092302;28;20207;-65
2022/12/10 00:43:24;;;;;;;39.30;22.80;;;;;;;14.85;100.00;-16572.56;5092211;28;20203;-64
2022/12/10 00:45:51;;;;;;;39.33;19.57;;;;;;;14.80;100.00;-18171.44;5092096;28;20184;-66
2022/12/10 00:48:18;;;;;;;41.77;22.47;;;;;;;14.48;100.00;-18165.63;5092413;28;20583;-65
2022/12/10 00:50:45;;;;;;;39.77;23.57;;;;;;;15.01;100.00;-18178.38;5092371;28;20643;-65
2022/12/10 00:53:12;;;;;;;48.13;25.07;;;;;;;14.91;100.00;-18174.09;5092258;28;20631;-65
2022/12/10 00:55:39;;;;;;;42.83;27.50;;;;;;;14.93;100.00;-18176.44;5091942;28;20258;-65
2022/12/10 00:58:05;;;;;;;47.37;23.97;;;;;;;14.92;100.00;-17534.31;5092258;28;20274;-65
2022/12/10 01:00:34;;;;;;;43.80;27.07;;;;;;;14.82;100.00;-16891.97;5091887;28;20184;-65
2022/12/10 01:03:00;;;;;;;50.53;26.73;;;;;;;14.73;100.00;-14969.31;5092042;28;20666;-65
2022/12/10 01:05:27;;;;;;;42.07;25.57;;;;;;;14.71;100.00;-14648.75;5092165;28;20269;-66
2022/12/10 01:07:54;;;;;;;34.47;20.77;;;;;;;14.73;100.00;-17529.94;5091720;28;20279;-65
2022/12/10 01:10:21;;;;;;;41.37;20.43;;;;;;;14.79;100.00;-18173.06;5092105;28;20580;-65
2022/12/10 01:12:48;;;;;;;39.87;21.83;;;;;;;14.57;100.00;-18167.78;5091154;28;20184;-65
2022/12/10 01:15:15;;;;;;;47.07;23.13;;;;;;;14.42;100.00;-18164.19;5091889;28;20227;-65
2022/12/10 01:17:43;;;;;;;40.47;21.93;;;;;;;14.54;100.00;-18167.06;5091997;28;20634;-65
2022/12/10 01:20:11;;;;;;;42.60;21.73;;;;;;;14.59;100.00;-18168.41;5091765;28;20184;-66
2022/12/10 01:22:38;;;;;;;35.27;22.33;;;;;;;14.65;100.00;-18169.72;5091643;28;20194;-65
2022/12/10 01:25:07;;;;;;;42.10;23.00;;;;;;;14.50;100.00;-18164.25;5091600;28;20765;-65
2022/12/10 01:27:33;;;;;;;36.87;20.93;;;;;;;14.58;100.00;-17846.47;5091478;28;20188;-65
2022/12/10 01:30:00;;;;;;;46.27;22.97;;;;;;;14.62;100.00;-17847.28;5091967;28;20200;-65
2022/12/10 01:32:27;;;;;;;38.77;21.83;;;;;;;14.60;100.00;-17207.06;5091522;28;20275;-65
2022/12/10 01:34:55;;;;;;;42.23;22.77;;;;;;;14.48;100.00;-16884.50;5091114;28;20208;-65
2022/12/10 01:37:22;;;;;;;41.43;22.00;;;;;;;14.67;100.00;-16888.56;5091334;28;20184;-65
2022/12/10 01:39:49;;;;;;;39.47;22.37;;;;;;;14.63;100.00;-16567.94;5091586;28;20196;-66
2022/12/10 01:42:16;;;;;;;43.47;22.40;;;;;;;14.52;100.00;-17205.28;5091610;28;20627;-65
2022/12/10 01:45:02;;;;;;;41.43;22.00;;;;;;;14.60;100.00;-17526.94;5091611;28;20645;-65
2022/12/10 01:47:29;;;;;;;44.43;21.70;;;;;;;14.61;100.00;-17847.03;5091236;28;20245;-65
2022/12/10 01:49:58;;;;;;;40.57;20.70;;;;;;;14.61;100.00;-18166.88;5091208;28;20188;-65
2022/12/10 01:52:25;;;;;;;41.70;21.30;;;;;;;14.65;100.00;-18167.84;5091448;28;20192;-65
2022/12/10 01:54:52;;;;;;;42.23;21.27;;;;;;;14.55;100.00;-18167.31;5091383;28;20634;-65
2022/12/10 01:57:22;;;;;;;37.50;20.27;;;;;;;14.60;100.00;-18168.50;5091285;28;20184;-65
2022/12/10 01:59:53;;;;;;;37.17;20.00;;;;;;;14.63;100.00;-18169.22;5091440;28;20267;-65
2022/12/10 02:02:30;;;;;;;38.90;19.60;;;;;;;14.64;100.00;-18169.47;5091077;28;20191;-65
2022/12/10 02:05:07;;;;;;;36.77;19.17;;;;;;;14.60;100.00;-18168.63;5091479;28;20180;-65
2022/12/10 02:07:45;;;;;;;31.60;18.47;;;;;;;14.56;100.00;-18165.78;5091441;28;20645;-64
2022/12/10 02:10:37;;;;;;;36.00;18.87;;;;;;;14.61;100.00;-17847.16;5091045;28;20184;-65
2022/12/10 02:13:10;;;;;;;36.60;18.77;;;;;;;14.65;100.00;-17848.00;5090967;28;20233;-66
2022/12/10 02:15:42;;;;;;;43.30;17.87;;;;;;;14.71;100.00;-17529.38;5090837;28;20215;-65
2022/12/10 02:18:13;;;;;;;33.73;20.60;;;;;;;14.70;100.00;-17209.31;5089712;28;20187;-65
2022/12/10 02:20:44;;;;;;;39.73;19.10;;;;;;;14.73;100.00;-17210.00;5091263;28;20278;-65
2022/12/10 02:23:14;;;;;;;33.63;19.57;;;;;;;14.65;100.00;-17208.19;5090905;28;20192;-65
2022/12/10 02:25:46;;;;;;;46.80;20.83;;;;;;;14.58;100.00;-17526.50;5093792;28;20232;-65
2022/12/10 02:28:20;;;;;;;49.13;24.07;;;;;;;14.45;100.00;-18164.91;5095103;28;20200;-65
2022/12/10 02:30:51;;;;;;;48.60;24.10;;;;;;;14.32;100.00;-18161.91;5094957;28;20570;-65
2022/12/10 02:33:21;;;;;;;42.47;24.57;;;;;;;14.38;100.00;-18163.34;5095053;28;20199;-65
2022/12/10 02:35:51;;;;;;;36.30;23.97;;;;;;;14.35;100.00;-18162.50;5094575;28;20224;-64
2022/12/10 02:38:23;;;;;;;45.80;23.60;;;;;;;14.23;100.00;-18159.63;5094916;28;20200;-65
2022/12/10 02:40:55;;;;;;;38.50;24.00;;;;;;;14.27;100.00;-18160.56;5094807;28;20180;-66
2022/12/10 02:43:25;;;;;;;39.80;22.53;;;;;;;14.37;100.00;-18163.09;5094520;28;20188;-65
2022/12/10 02:45:55;;;;;;;44.43;24.37;;;;;;;14.31;100.00;-18161.53;5094775;28;20659;-66
2022/12/10 02:48:23;;;;;;;38.93;23.27;;;;;;;14.35;100.00;-18162.50;5094659;28;20191;-65
2022/12/10 02:50:50;;;;;;;44.03;23.43;;;;;;;14.24;100.00;-18159.84;5094568;28;20211;-66
2022/12/10 02:53:17;;;;;;;36.13;18.07;;;;;;;14.42;100.00;-18164.19;5094649;28;20623;-65
2022/12/10 02:56:03;;;;;;;31.67;20.40;;;;;;;14.50;100.00;-18166.09;5094546;28;20219;-66
2022/12/10 02:58:42;;;;;;;43.03;22.67;;;;;;;14.74;100.00;-18170.00;5094479;28;20258;-66
2022/12/10 03:01:17;;;;;;;33.60;18.43;;;;;;;14.72;100.00;-18169.41;5094132;28;20191;-65
2022/12/10 03:03:50;;;;;;;38.03;21.70;;;;;;;14.80;100.00;-18173.19;5094408;28;20190;-65
2022/12/10 03:06:22;;;;;;;37.30;21.03;;;;;;;14.70;100.00;-18170.78;5094168;28;20180;-65
2022/12/10 03:08:52;;;;;;;34.57;20.60;;;;;;;14.74;100.00;-18171.75;5094043;28;20188;-66
2022/12/10 03:11:22;;;;;;;35.60;21.83;;;;;;;14.38;100.00;-18163.22;5093884;28;20271;-65
2022/12/10 03:13:55;;;;;;;31.30;20.17;;;;;;;14.50;100.00;-18166.09;5093842;28;20188;-65
2022/12/10 03:16:26;;;;;;;42.33;23.57;;;;;;;14.51;100.00;-18166.34;5094382;28;20593;-65
2022/12/10 03:18:58;;;;;;;39.53;21.87;;;;;;;14.43;100.00;-18164.53;5094236;28;20184;-65
2022/12/10 03:21:27;;;;;;;40.33;21.93;;;;;;;14.65;100.00;-18169.72;5093771;28;20267;-66
2022/12/10 03:23:54;;;;;;;37.13;22.70;;;;;;;14.58;100.00;-18168.03;5094324;28;20199;-65
2022/12/10 03:26:22;;;;;;;34.30;21.97;;;;;;;14.68;100.00;-18170.31;5093499;28;20231;-65
2022/12/10 03:28:53;;;;;;;40.47;20.97;;;;;;;14.69;100.00;-18170.69;5093847;28;20191;-65
2022/12/10 03:31:22;;;;;;;29.57;20.57;;;;;;;14.52;100.00;-18166.72;5093855;28;20191;-65
2022/12/10 03:33:50;;;;;;;37.47;20.20;;;;;;;14.66;100.00;-18169.97;5093594;28;20181;-65
2022/12/10 03:36:21;;;;;;;34.30;19.53;;;;;;;14.64;100.00;-18167.59;5092216;28;20722;-65
2022/12/10 03:38:48;;;;;;;41.70;19.43;;;;;;;14.76;100.00;-17850.56;5093341;28;20562;-65
2022/12/10 03:41:15;;;;;;;24.63;17.07;;;;;;;14.90;100.00;-17853.88;5093400;28;20181;-65
2022/12/10 03:43:52;;;;;;;41.43;16.43;;;;;;;15.02;100.00;-17856.56;5093512;28;20623;-64
2022/12/10 03:46:19;;;;;;;33.90;17.00;;;;;;;15.16;100.00;-17539.59;5093600;28;20651;-65
2022/12/10 03:48:46;;;;;;;34.47;16.87;;;;;;;15.13;100.00;-17859.16;5093551;28;20193;-65
2022/12/10 03:51:14;;;;;;;32.87;16.67;;;;;;;15.31;100.00;-17863.38;5093128;28;20188;-65
2022/12/10 03:53:41;;;;;;;25.07;17.03;;;;;;;15.41;100.00;-18185.97;5093548;28;20188;-65
2022/12/10 03:56:08;;;;;;;33.30;16.70;;;;;;;15.40;100.00;-18187.50;5092871;28;20212;-65
2022/12/10 03:58:35;;;;;;;36.27;16.93;;;;;;;15.61;100.00;-18192.53;5093306;28;20227;-65
2022/12/10 04:01:02;;;;;;;24.50;16.80;;;;;;;15.65;100.00;-18193.50;5092942;28;20201;-67
2022/12/10 04:03:29;;;;;;;28.83;17.00;;;;;;;15.68;100.00;-18194.22;5092915;28;20607;-65
2022/12/10 04:06:02;;;;;;;34.10;16.23;;;;;;;15.63;100.00;-18192.91;5093012;28;20554;-65
2022/12/10 04:08:31;;;;;;;23.80;15.93;;;;;;;15.57;100.00;-18191.47;5092968;28;20188;-66
2022/12/10 04:11:03;;;;;;;35.20;16.40;;;;;;;15.44;100.00;-18188.44;5092889;28;20188;-66
2022/12/10 04:16:29;;;;;;;34.30;15.67;;;;;;;15.45;100.00;-18188.69;5093057;28;20197;-65
2022/12/10 04:18:57;;;;;;;34.27;14.90;;;;;;;15.46;100.00;-18188.94;5092641;28;20230;-66
2022/12/10 04:26:57;;;;;;;38.50;15.70;;;;;;;15.59;100.00;-18192.06;5092712;28;20496;-65
2022/12/10 04:29:25;;;;;;;25.40;16.00;;;;;;;15.67;100.00;-18193.84;5092454;28;20203;-66
2022/12/10 04:31:52;;;;;;;23.20;14.03;;;;;;;15.59;100.00;-17869.84;5092772;28;20668;-66
2022/12/10 04:34:20;;;;;;;28.23;15.43;;;;;;;15.56;100.00;-17228.41;5091253;28;20191;-65
2022/12/10 04:36:47;;;;;;;21.90;15.50;;;;;;;15.19;100.00;-16899.88;5092724;28;20281;-65
2022/12/10 04:39:16;;;;;;;32.57;16.47;;;;;;;15.46;100.00;-16265.09;5092712;28;20208;-65
2022/12/10 04:41:44;;;;;;;38.67;17.63;;;;;;;15.42;100.00;-14341.16;5092495;28;20236;-66
2022/12/10 04:44:11;;;;;;;39.53;18.03;;;;;;;15.43;100.00;-14020.63;5092511;28;20570;-66
2022/12/10 04:46:39;;;;;;;33.60;20.03;;;;;;;15.09;100.00;-12412.16;5091762;28;20271;-66
2022/12/10 04:49:06;;;;;;;42.17;19.30;;;;;;;15.01;100.00;-12090.38;5091971;28;20574;-65
2022/12/10 04:51:33;;;;;;;39.50;19.53;;;;;;;14.96;100.00;-13692.25;5092206;28;20196;-65
2022/12/10 04:54:01;;;;;;;31.50;19.27;;;;;;;14.95;100.00;-14012.50;5092418;28;20195;-66
2022/12/10 04:56:29;;;;;;;50.37;21.13;;;;;;;14.99;100.00;-14653.97;5091890;28;20232;-65
2022/12/10 04:58:57;;;;;;;38.60;22.03;;;;;;;14.90;100.00;-14652.31;5092226;28;20657;-66
2022/12/10 05:01:24;;;;;;;39.07;21.73;;;;;;;14.89;100.00;-13050.13;5092311;28;20199;-65
2022/12/10 05:03:51;;;;;;;42.23;20.33;;;;;;;14.79;100.00;-13048.63;5092223;28;20623;-65
2022/12/10 05:06:20;;;;;;;27.27;19.53;;;;;;;14.62;100.00;-13046.03;5091938;28;20187;-66
2022/12/10 05:08:47;;;;;;;37.33;20.20;;;;;;;14.60;100.00;-16247.22;5090995;28;20187;-66
2022/12/10 05:11:16;;;;;;;37.70;22.40;;;;;;;14.65;100.00;-18169.72;5091871;28;20184;-65
2022/12/10 05:13:45;;;;;;;53.57;24.57;;;;;;;14.72;100.00;-18171.41;5092253;28;20199;-64
2022/12/10 05:16:13;;;;;;;46.00;24.17;;;;;;;14.74;100.00;-18171.75;5092035;28;20659;-65
2022/12/10 05:18:41;;;;;;;51.00;25.70;;;;;;;14.58;100.00;-18168.03;5091857;28;20187;-65
2022/12/10 05:21:10;;;;;;;50.17;24.93;;;;;;;14.64;100.00;-18169.59;5091749;28;20192;-66
2022/12/10 05:23:37;;;;;;;38.40;22.53;;;;;;;14.66;100.00;-18169.84;5091712;28;20195;-65
2022/12/10 05:26:07;;;;;;;42.53;23.23;;;;;;;14.68;100.00;-18168.44;5091612;28;20261;-65
2022/12/10 05:28:36;;;;;;;50.80;23.40;;;;;;;14.57;100.00;-16566.66;5092165;28;20198;-65
2022/12/10 05:31:05;;;;;;;44.20;22.73;;;;;;;14.46;100.00;-15284.38;5091460;28;20282;-65
2022/12/10 05:33:32;;;;;;;49.83;23.30;;;;;;;14.46;100.00;-16884.06;5091608;28;20275;-65
2022/12/10 05:36:02;;;;;;;39.20;21.23;;;;;;;14.45;100.00;-16563.97;5091600;28;20216;-65
2022/12/10 05:38:31;;;;;;;51.83;23.83;;;;;;;14.32;100.00;-17200.88;5091840;28;20210;-65
2022/12/10 05:41:02;;;;;;;46.53;24.17;;;;;;;14.40;100.00;-18161.94;5091970;28;20180;-66
2022/12/10 05:43:29;;;;;;;55.20;25.90;;;;;;;14.41;100.00;-18163.94;5091453;28;20184;-65
2022/12/10 05:46:00;;;;;;;43.67;25.33;;;;;;;14.43;100.00;-18164.44;5091358;28;20215;-65
2022/12/10 05:48:30;;;;;;;45.40;25.57;;;;;;;14.46;100.00;-18165.16;5091753;28;20564;-65
2022/12/10 05:50:57;;;;;;;56.93;26.10;;;;;;;14.43;100.00;-18164.44;5091645;28;20188;-65
2022/12/10 05:53:24;;;;;;;38.97;24.17;;;;;;;14.42;100.00;-18164.19;5091403;28;20199;-65
2022/12/10 05:55:59;;;;;;;63.10;26.03;;;;;;;14.29;100.00;-18161.19;5091547;28;20584;-65
2022/12/10 05:58:28;;;;;;;54.70;26.43;;;;;;;14.53;100.00;-18166.84;5092282;28;20578;-65
2022/12/10 06:00:55;;;;;;;45.87;27.50;;;;;;;14.45;100.00;-18164.91;5095733;28;20188;-65
2022/12/10 06:03:21;;;;;;;57.13;26.30;;;;;;;14.60;100.00;-18168.50;5095729;28;20550;-65
2022/12/10 06:05:50;;;;;;;59.30;25.63;;;;;;;14.57;100.00;-18167.78;5095589;28;20661;-65
2022/12/10 06:08:16;;;;;;;59.27;27.67;;;;;;;14.61;100.00;-18168.75;5095768;28;20188;-66
2022/12/10 06:10:43;;;;;;;55.80;25.87;;;;;;;14.51;100.00;-18166.47;5095687;28;20188;-65
2022/12/10 06:13:10;;;;;;;46.33;26.63;;;;;;;14.42;100.00;-18164.19;5095229;28;20188;-65
2022/12/10 06:15:40;;;;;;;50.83;25.67;;;;;;;14.52;100.00;-18166.59;5095378;28;20195;-65
2022/12/10 06:18:08;;;;;;;51.63;28.10;;;;;;;14.37;100.00;-18162.97;5095482;28;20262;-65
2022/12/10 06:20:34;;;;;;;61.20;27.60;;;;;;;14.25;100.00;-18160.22;5095223;28;20184;-64
2022/12/10 06:23:03;;;;;;;53.30;28.87;;;;;;;14.36;100.00;-18162.75;5095436;28;20214;-65
2022/12/10 06:25:29;;;;;;;55.43;30.43;;;;;;;14.33;100.00;-18162.13;5094958;28;20224;-65
2022/12/10 06:27:56;;;;;;;50.43;30.23;;;;;;;14.44;100.00;-18164.66;5094878;28;20184;-65
2022/12/10 06:30:23;;;;;;;59.00;29.93;;;;;;;14.50;100.00;-18166.22;5095222;28;20192;-65
2022/12/10 06:32:50;;;;;;;62.00;30.37;;;;;;;14.40;100.00;-18163.69;5094885;28;20187;-65
2022/12/10 06:35:17;;;;;;;61.33;30.40;;;;;;;14.64;100.00;-18169.47;5095021;28;20607;-65
2022/12/10 06:37:44;;;;;;;49.67;29.70;;;;;;;14.62;100.00;-18169.13;5094532;28;20208;-65
2022/12/10 06:40:13;;;;;;;54.13;29.73;;;;;;;14.63;100.00;-18169.22;5094931;28;20566;-67
2022/12/10 06:42:40;;;;;;;59.63;29.57;;;;;;;14.59;100.00;-18168.41;5095046;28;20188;-65
2022/12/10 06:45:07;;;;;;;53.17;30.13;;;;;;;14.63;100.00;-18169.22;5095001;28;20203;-65
2022/12/10 06:47:34;;;;;;;68.30;28.83;;;;;;;14.55;100.00;-18167.44;5094430;28;20180;-66
2022/12/10 06:50:02;;;;;;;59.70;29.60;;;;;;;14.58;100.00;-18168.16;5093410;28;20188;-65
2022/12/10 06:52:28;;;;;;;55.10;29.27;;;;;;;14.67;100.00;-18170.19;5094563;28;20184;-65
2022/12/10 06:54:56;;;;;;;61.20;28.10;;;;;;;14.64;100.00;-18169.47;5094479;28;20215;-65
2022/12/10 06:57:24;;;;;;;50.37;28.97;;;;;;;14.68;100.00;-18170.44;5094047;28;20208;-64
2022/12/10 06:59:51;;;;;;;53.73;29.43;;;;;;;14.80;100.00;-18173.19;5094063;28;20187;-66
2022/12/10 07:02:18;;;;;;;55.30;27.77;;;;;;;14.90;100.00;-18175.59;5094359;28;20191;-65
2022/12/10 07:04:45;;;;;;;56.50;28.10;;;;;;;15.00;100.00;-18178.00;5094290;28;20680;-66
2022/12/10 07:07:12;;;;;;;54.63;27.33;;;;;;;15.07;100.00;-18179.81;5092986;28;20192;-65
2022/12/10 07:09:39;;;;;;;47.23;26.43;;;;;;;15.20;100.00;-18182.69;5093319;28;20191;-65
2022/12/10 07:12:06;;;;;;;47.40;28.60;;;;;;;15.25;100.00;-18183.88;5092474;28;20195;-66
2022/12/10 07:14:34;;;;;;;48.17;26.67;;;;;;;15.37;100.00;-18186.75;5094295;28;20211;-65
2022/12/10 07:17:02;;;;;;;50.77;28.30;;;;;;;15.40;100.00;-18185.63;5093662;28;20211;-65
2022/12/10 07:19:28;;;;;;;46.57;26.70;;;;;;;15.36;100.00;-18184.66;5093574;28;20180;-66
2022/12/10 07:21:55;;;;;;;48.97;24.27;;;;;;;15.59;100.00;-18190.19;5094111;28;20271;-65
2022/12/10 07:24:22;;;;;;;53.43;24.47;;;;;;;15.67;100.00;-17871.72;5093477;28;20188;-65
2022/12/10 07:26:49;;;;;;;58.53;26.13;;;;;;;15.57;100.00;-17869.25;5093546;28;20184;-65
2022/12/10 07:29:18;;;;;;;49.73;23.97;;;;;;;15.65;100.00;-17871.25;5093540;28;20191;-65
2022/12/10 07:31:48;;;;;;;38.47;21.97;;;;;;;15.79;100.00;-17874.53;5093572;28;20194;-65
2022/12/10 07:34:16;;;;;;;46.23;21.93;;;;;;;15.78;100.00;-18194.75;5093644;28;20184;-66
2022/12/10 07:36:43;;;;;;;41.87;20.80;;;;;;;16.06;100.00;-18201.34;5093857;28;20665;-65
2022/12/10 07:39:16;;;;;;;48.40;20.20;;;;;;;16.25;100.00;-17564.50;5093648;28;20623;-65
2022/12/10 07:41:43;;;;;;;43.60;19.20;;;;;;;16.46;100.00;-16606.59;5093700;28;20301;-65
2022/12/10 07:44:12;;;;;;;41.90;18.23;;;;;;;16.68;100.00;-13399.31;5093948;28;20567;-66
2022/12/10 07:46:39;;;;;;;31.77;15.90;;;;;;;16.85;100.00;-12759.22;5092011;28;20180;-66
2022/12/10 07:49:08;;;;;;;39.57;15.23;;;;;;;17.03;100.00;-6968.06;5093470;28;20631;-66
2022/12/10 07:51:35;;;;;;;31.30;15.40;;;;;;;17.23;100.00;-4390.06;5093660;28;20342;-66
2022/12/10 07:54:01;;;;;;;30.77;14.60;;;;;;;17.35;100.00;3684.31;5093339;28;20196;-66
2022/12/10 07:56:29;;;;;;;30.53;13.63;;;;;;;17.36;100.00;10482.47;5093409;28;20216;-66
2022/12/10 07:58:55;;;;;;;31.87;15.10;;;;;;;17.54;100.00;10810.66;5093097;28;20535;-66
2022/12/10 08:01:25;;;;;;;37.60;14.33;;;;;;;17.73;100.00;12761.16;5093319;28;20191;-66
2022/12/10 08:03:52;;;;;;;28.43;13.27;;;;;;;17.85;100.00;15361.56;5093181;28;20187;-66
2022/12/10 08:06:22;;;;;;;26.37;13.97;;;;;;;17.89;100.00;21865.06;5093370;28;20631;-66
2022/12/10 08:08:49;;;;;;;24.60;13.57;;;;;;;17.94;100.00;23820.72;5093154;28;20657;-67
2022/12/10 08:11:18;;;;;;;28.87;13.33;;;;;;;18.00;100.00;24800.59;5092988;28;20204;-66
2022/12/10 08:13:45;;;;;;;25.63;12.17;;;;;;;17.94;100.00;26101.13;5093030;28;20203;-65
2022/12/10 08:16:15;;;;;;;21.13;12.57;;;;;;;18.02;100.00;26104.72;5093021;28;20220;-66
2022/12/10 08:18:42;;;;;;;33.23;11.77;;;;;;;18.04;100.00;25128.00;5092628;28;20214;-66
2022/12/10 08:21:11;;;;;;;28.33;11.80;;;;;;;17.95;100.00;28383.38;5092965;28;20193;-66
2022/12/10 08:23:40;;;;;;;19.93;11.60;;;;;;;18.03;100.00;28061.34;5092586;28;20185;-65
2022/12/10 08:26:08;;;;;;;30.83;11.43;;;;;;;18.13;100.00;28066.44;5092407;28;20618;-66
2022/12/10 08:28:35;;;;;;;46.40;14.20;;;;;;;18.21;100.00;29375.66;5092674;28;20192;-66
2022/12/10 08:31:03;;;;;;;62.73;18.57;;;;;;;18.00;100.00;25777.84;5092365;28;20659;-66
2022/12/10 08:33:30;;;;;;;72.00;27.57;;;;;;;17.93;100.00;23820.28;5092378;28;20184;-65
2022/12/10 08:35:59;;;;;;;81.70;32.40;;;;;;;17.76;100.00;24464.19;5092908;28;20211;-65
2022/12/10 08:38:28;;;;;;;67.63;30.17;;;;;;;17.56;100.00;29993.69;5092235;28;20262;-66
2022/12/10 08:40:57;;;;;;;71.83;31.70;;;;;;;17.55;100.00;29667.09;5092081;28;20184;-66
2022/12/10 08:43:25;;;;;;;64.07;31.07;;;;;;;17.32;100.00;23468.25;5092114;28;20191;-66
2022/12/10 08:45:52;;;;;;;65.17;33.03;;;;;;;17.10;100.00;14690.34;5092083;28;20180;-66
2022/12/10 08:48:18;;;;;;;79.87;34.27;;;;;;;17.09;100.00;12096.47;5091989;28;20190;-66
2022/12/10 08:50:46;;;;;;;82.77;34.17;;;;;;;17.09;100.00;6591.75;5090743;28;20290;-65
2022/12/10 08:53:12;;;;;;;61.87;29.10;;;;;;;17.12;100.00;4328.28;5092554;28;20532;-65
2022/12/10 08:55:40;;;;;;;73.03;29.30;;;;;;;17.21;100.00;5946.59;5092050;28;20180;-67
2022/12/10 08:58:10;;;;;;;43.57;18.93;;;;;;;17.49;100.00;8865.19;5090751;28;20204;-66
2022/12/10 09:00:36;;;;;;;49.27;18.23;;;;;;;17.68;100.00;15031.72;5092129;28;20191;-67
2022/12/10 09:03:04;;;;;;;43.00;15.20;;;;;;;18.10;100.00;26108.53;5090679;28;20188;-66
2022/12/10 09:05:31;;;;;;;40.43;15.40;;;;;;;18.41;100.00;37230.31;5092357;28;20255;-66
2022/12/10 09:07:58;;;;;;;39.30;14.93;;;;;;;19.20;100.00;63594.50;5091789;28;20180;-66
2022/12/10 09:10:25;;;;;;;52.63;15.73;;;;;;;20.08;100.00;96917.38;5092061;28;20188;-67
2022/12/10 09:12:52;;;;;;;31.07;13.93;;;;;;;20.78;100.00;151260.91;5091816;28;20187;-66
2022/12/10 09:15:20;;;;;;;49.73;14.90;;;;;;;21.29;100.00;151389.63;5092349;28;20639;-67
2022/12/10 09:17:47;;;;;;;43.47;15.03;;;;;;;22.16;100.00;151608.88;5092131;28;20543;-66
2022/12/10 09:20:17;;;;;;;45.53;14.57;;;;;;;22.56;100.00;151710.94;5092890;28;20199;-67
2022/12/10 09:22:44;;;;;;;48.20;15.73;;;;;;;22.93;100.00;151804.06;5094165;28;20192;-67
2022/12/10 09:25:14;;;;;;;32.83;13.70;;;;;;;22.22;100.00;151624.22;5093782;28;20232;-66
2022/12/10 09:27:41;;;;;;;36.38;13.05;;;;;;;22.02;100.00;151574.50;5093361;28;20266;-66
2022/12/10 09:30:09;;;;;;;28.38;11.45;;;;;;;21.51;100.00;151444.44;5093006;28;20649;-66
2022/12/10 09:32:38;;;;;;;29.10;10.33;;;;;;;21.23;100.00;151375.59;5092276;28;20221;-67
2022/12/10 09:35:06;;;;;;;23.77;10.40;;;;;;;21.04;100.00;151327.16;5092452;28;20370;-66
2022/12/10 09:37:33;;;;;;;32.80;10.60;;;;;;;20.86;100.00;151281.28;5092513;28;20208;-66
2022/12/10 09:39:59;;;;;;;28.27;11.63;;;;;;;20.55;100.00;151202.28;5091941;28;20187;-66
2022/12/10 09:42:37;;;;;;;30.00;11.73;;;;;;;20.56;100.00;151206.13;5091966;28;20195;-67
2022/12/10 09:45:11;;;;;;;33.23;11.57;;;;;;;20.55;100.00;151202.28;5090081;28;20199;-66
2022/12/10 09:47:48;;;;;;;21.57;10.67;;;;;;;20.27;100.00;151133.50;5091790;28;20650;-66
2022/12/10 09:50:22;;;;;;;29.57;10.80;;;;;;;19.99;100.00;151063.47;5091268;28;20198;-66
2022/12/10 09:52:50;;;;;;;11.27;8.57;;;;;;;19.45;100.00;150927.28;5091457;28;20535;-66
2022/12/10 09:55:20;;;;;;;16.27;8.60;;;;;;;19.33;100.00;150896.69;5091110;28;20184;-65
2022/12/10 09:57:50;;;;;;;17.47;7.33;;;;;;;19.01;100.00;134610.69;5091353;28;20311;-66
2022/12/10 10:00:22;;;;;;;12.43;7.27;;;;;;;18.98;100.00;127536.22;5091220;28;20180;-66
2022/12/10 10:02:52;;;;;;;16.50;7.40;;;;;;;18.88;100.00;148016.78;5091385;28;20184;-67
2022/12/10 10:05:23;;;;;;;16.77;7.93;;;;;;;18.87;100.00;144784.03;5091398;28;20188;-66
2022/12/10 10:07:54;;;;;;;8.83;6.93;;;;;;;18.95;100.00;139991.16;5091284;28;20187;-66
2022/12/10 10:10:26;;;;;;;10.33;7.13;;;;;;;19.11;100.00;150841.97;5091283;28;20554;-66
2022/12/10 10:12:56;;;;;;;12.57;7.53;;;;;;;19.32;100.00;150894.13;5090959;28;20527;-66
2022/12/10 10:15:29;;;;;;;19.50;7.87;;;;;;;19.44;100.00;150923.44;5090950;28;20264;-66
2022/12/10 10:18:02;;;;;;;16.33;7.47;;;;;;;19.55;100.00;150952.75;5091174;28;20662;-66
2022/12/10 10:20:30;;;;;;;17.37;7.17;;;;;;;19.43;100.00;150922.22;5091353;28;20574;-66
2022/12/10 10:23:00;;;;;;;20.13;7.93;;;;;;;19.66;100.00;150978.16;5091104;28;20560;-66
2022/12/10 10:25:28;;;;;;;19.73;7.80;;;;;;;19.80;100.00;151015.09;5090830;28;20281;-67
2022/12/10 10:27:55;;;;;;;19.40;8.20;;;;;;;19.86;100.00;151029.13;5091124;28;20184;-67
2022/12/10 10:30:24;;;;;;;15.50;7.57;;;;;;;19.90;100.00;151040.53;5091105;28;20257;-66
2022/12/10 10:32:53;;;;;;;20.77;7.80;;;;;;;19.97;100.00;151058.38;5091066;28;20206;-66
2022/12/10 10:35:25;;;;;;;27.63;8.63;;;;;;;20.35;100.00;151152.66;5091115;28;20203;-66
2022/12/10 10:37:57;;;;;;;12.30;7.23;;;;;;;21.17;100.00;151359.06;5090729;28;20204;-67
2022/12/10 10:40:28;;;;;;;10.82;6.50;;;;;;;23.50;100.00;151948.31;5091199;28;20181;-67
2022/12/10 10:42:57;;;;;;;13.27;6.38;;;;;;;25.34;100.00;152411.91;5090748;28;20191;-67
2022/12/10 10:45:37;;;;;;;7.53;5.68;;;;;;;25.52;100.00;152457.94;5091699;28;20199;-66
2022/12/10 10:48:07;;;;;;;8.73;5.38;;;;;;;24.60;100.00;152225.38;5094277;28;20180;-66
2022/12/10 10:50:40;;;;;;;9.38;5.20;;;;;;;25.27;100.00;152395.31;5094621;28;20176;-66
2022/12/10 10:53:43;;;;;;;15.13;6.00;;;;;;;24.85;100.00;152289.31;5094452;28;20192;-67
2022/12/10 10:56:16;;;;;;;10.63;4.93;;;;;;;24.49;100.00;152197.25;5094451;28;20191;-67
2022/12/10 10:58:51;;;;;;;10.95;5.20;;;;;;;24.58;100.00;152220.25;5094557;28;20211;-67
2022/12/10 11:01:19;;;;;;;8.25;5.15;;;;;;;25.06;100.00;152340.38;5094142;28;20192;-67
2022/12/10 11:03:48;;;;;;;6.55;4.80;;;;;;;25.28;100.00;152397.91;5094426;28;20195;-66
2022/12/10 11:06:18;;;;;;;14.70;5.20;;;;;;;25.22;100.00;152382.53;5094486;28;20603;-66
2022/12/10 11:08:47;;;;;;;12.65;5.90;;;;;;;25.63;100.00;152486.06;5094404;28;20184;-67
2022/12/10 11:11:20;;;;;;;12.50;5.65;;;;;;;24.96;100.00;152317.38;5094436;28;20580;-66
2022/12/10 11:13:48;;;;;;;9.27;5.60;;;;;;;24.37;100.00;152167.91;5094170;28;20250;-67
2022/12/10 11:16:20;;;;;;;13.23;5.57;;;;;;;24.54;100.00;152210.03;5094270;28;20642;-67
2022/12/10 11:18:57;;;;;;;13.80;5.10;;;;;;;24.23;100.00;152130.91;5093749;28;20208;-66
2022/12/10 11:21:25;;;;;;;9.68;5.00;;;;;;;23.86;100.00;152037.63;5093860;28;20188;-67